createdAt,value
2023-03-06T00:01:04.071Z,3.30
2023-03-06T00:02:06.691Z,3.30
2023-03-06T00:03:09.202Z,3.30
2023-03-06T00:04:10.967Z,3.30
2023-03-06T00:05:14.168Z,3.30
2023-03-06T00:06:16.026Z,3.30
2023-03-06T00:07:17.820Z,3.30
2023-03-06T00:08:20.078Z,3.30
2023-03-06T00:09:21.886Z,3.30
2023-03-06T00:10:26.241Z,3.30
2023-03-06T00:11:27.960Z,3.30
2023-03-06T00:12:29.767Z,3.30
2023-03-06T00:13:32.226Z,3.30
2023-03-06T00:14:34.077Z,3.30
2023-03-06T00:15:35.940Z,3.30
2023-03-06T00:16:37.804Z,3.30
2023-03-06T00:17:40.468Z,3.30
2023-03-06T00:18:44.057Z,3.30
2023-03-06T00:19:46.042Z,3.30
2023-03-06T00:20:47.874Z,3.30
2023-03-06T00:21:49.933Z,3.30
2023-03-06T00:22:52.478Z,3.20
2023-03-06T00:23:54.470Z,3.20
2023-03-06T00:24:56.248Z,3.20
2023-03-06T00:25:58.612Z,3.20
2023-03-06T00:27:00.951Z,3.20
2023-03-06T00:28:02.732Z,3.20
2023-03-06T00:29:04.640Z,3.20
2023-03-06T00:30:07.487Z,3.20
2023-03-06T00:31:09.461Z,3.20
2023-03-06T00:32:11.368Z,3.20
2023-03-06T00:33:13.267Z,3.20
2023-03-06T00:34:15.331Z,3.20
2023-03-06T00:35:17.326Z,3.20
2023-03-06T00:36:19.144Z,3.20
2023-03-06T00:37:22.780Z,3.20
2023-03-06T00:38:27.559Z,3.20
2023-03-06T00:39:31.356Z,3.20
2023-03-06T00:40:33.130Z,3.20
2023-03-06T00:41:35.091Z,3.20
2023-03-06T00:42:36.946Z,3.20
2023-03-06T00:43:39.872Z,3.20
2023-03-06T00:44:43.076Z,3.20
2023-03-06T00:45:45.003Z,3.30
2023-03-06T00:46:46.892Z,3.20
2023-03-06T00:47:48.810Z,3.20
2023-03-06T00:48:50.726Z,3.20
2023-03-06T00:49:55.395Z,3.10
2023-03-06T00:50:57.232Z,3.10
2023-03-06T00:51:58.996Z,3.10
2023-03-06T00:53:00.863Z,3.10
2023-03-06T00:54:02.664Z,3.00
2023-03-06T00:55:05.800Z,3.10
2023-03-06T00:56:09.157Z,3.00
2023-03-06T00:57:11.034Z,3.00
2023-03-06T00:58:12.927Z,3.00
2023-03-06T00:59:14.765Z,2.90
2023-03-06T01:00:17.254Z,2.90
2023-03-06T01:01:19.393Z,2.90
2023-03-06T01:02:21.857Z,2.80
2023-03-06T01:03:23.703Z,2.80
2023-03-06T01:04:27.621Z,2.80
2023-03-06T01:05:29.886Z,2.80
2023-03-06T01:06:31.656Z,2.80
2023-03-06T01:07:36.549Z,2.80
2023-03-06T01:08:38.628Z,2.80
2023-03-06T01:09:40.388Z,2.80
2023-03-06T01:10:42.161Z,2.80
2023-03-06T01:11:44.286Z,2.80
2023-03-06T01:12:46.471Z,2.80
2023-03-06T01:13:49.916Z,2.80
2023-03-06T01:14:51.718Z,2.80
2023-03-06T01:15:53.550Z,2.80
2023-03-06T01:16:56.521Z,2.80
2023-03-06T01:17:58.588Z,2.80
2023-03-06T01:19:00.349Z,2.80
2023-03-06T01:20:02.299Z,2.80
2023-03-06T01:21:06.286Z,2.80
2023-03-06T01:22:08.564Z,2.80
2023-03-06T01:23:10.384Z,2.80
2023-03-06T01:24:12.141Z,2.70
2023-03-06T01:25:14.130Z,2.70
2023-03-06T01:26:16.203Z,2.70
2023-03-06T01:27:18.224Z,2.70
2023-03-06T01:28:20.190Z,2.70
2023-03-06T01:29:22.003Z,2.70
2023-03-06T01:30:23.804Z,2.80
2023-03-06T01:31:26.504Z,2.70
2023-03-06T01:32:28.463Z,2.70
2023-03-06T01:33:30.662Z,2.70
2023-03-06T01:34:32.425Z,2.80
2023-03-06T01:35:34.321Z,2.80
2023-03-06T01:36:36.104Z,2.80
2023-03-06T01:37:38.962Z,2.80
2023-03-06T01:38:41.822Z,2.80
2023-03-06T01:39:43.882Z,2.90
2023-03-06T01:40:46.063Z,2.90
2023-03-06T01:41:47.882Z,2.90
2023-03-06T01:42:50.523Z,2.90
2023-03-06T01:43:52.869Z,2.90
2023-03-06T01:45:09.829Z,2.90
2023-03-06T01:46:32.363Z,2.90
2023-03-06T01:47:34.459Z,2.90
2023-03-06T01:48:36.449Z,2.90
2023-03-06T01:49:40.605Z,3.00
2023-03-06T01:50:43.423Z,3.00
2023-03-06T01:52:11.728Z,2.90
2023-03-06T01:53:15.013Z,3.00
2023-03-06T01:54:24.451Z,3.00
2023-03-06T01:55:31.013Z,3.00
2023-03-06T01:56:33.230Z,3.00
2023-03-06T01:57:47.297Z,3.00
2023-03-06T01:58:49.728Z,3.00
2023-03-06T01:59:55.909Z,2.90
2023-03-06T02:00:59.516Z,2.90
2023-03-06T02:02:03.562Z,2.90
2023-03-06T02:03:21.938Z,2.90
2023-03-06T02:04:24.427Z,2.90
2023-03-06T02:05:27.423Z,2.90
2023-03-06T02:06:29.417Z,2.90
2023-03-06T02:07:31.973Z,2.90
2023-03-06T02:08:33.947Z,2.80
2023-03-06T02:09:37.039Z,2.80
2023-03-06T02:11:00.904Z,2.80
2023-03-06T02:12:07.890Z,2.80
2023-03-06T02:13:09.964Z,2.80
2023-03-06T02:14:14.370Z,2.80
2023-03-06T02:15:19.123Z,2.80
2023-03-06T02:16:25.299Z,2.80
2023-03-06T02:17:27.676Z,2.80
2023-03-06T02:18:30.225Z,2.80
2023-03-06T02:19:55.610Z,2.80
2023-03-06T02:21:00.644Z,2.70
2023-03-06T02:22:03.738Z,2.70
2023-03-06T02:23:11.924Z,2.60
2023-03-06T02:24:43.301Z,2.60
2023-03-06T02:25:48.371Z,2.60
2023-03-06T02:26:51.374Z,2.50
2023-03-06T02:27:54.080Z,2.50
2023-03-06T02:28:58.490Z,2.50
2023-03-06T02:30:00.879Z,2.40
2023-03-06T02:31:03.292Z,2.40
2023-03-06T02:32:05.694Z,2.40
2023-03-06T02:33:07.571Z,2.40
2023-03-06T02:34:15.857Z,2.40
2023-03-06T02:35:23.284Z,2.40
2023-03-06T02:36:25.212Z,2.40
2023-03-06T02:37:28.900Z,2.40
2023-03-06T02:38:48.811Z,2.40
2023-03-06T02:39:57.343Z,2.30
2023-03-06T02:41:01.636Z,2.30
2023-03-06T02:42:05.088Z,2.30
2023-03-06T02:43:07.559Z,2.20
2023-03-06T02:44:09.538Z,2.20
2023-03-06T02:45:14.096Z,2.10
2023-03-06T02:46:16.164Z,2.10
2023-03-06T02:47:17.988Z,2.10
2023-03-06T02:48:20.569Z,2.10
2023-03-06T02:49:24.371Z,2.00
2023-03-06T02:50:27.298Z,2.00
2023-03-06T02:51:29.246Z,2.00
2023-03-06T02:52:31.153Z,2.00
2023-03-06T02:53:32.951Z,2.00
2023-03-06T02:54:34.805Z,2.00
2023-03-06T02:55:37.618Z,2.00
2023-03-06T02:56:39.453Z,2.00
2023-03-06T02:57:42.823Z,2.00
2023-03-06T02:58:44.926Z,2.00
2023-03-06T02:59:46.948Z,2.00
2023-03-06T03:00:49.574Z,2.00
2023-03-06T03:01:51.838Z,2.00
2023-03-06T03:02:54.092Z,2.10
2023-03-06T03:03:57.253Z,2.00
2023-03-06T03:04:59.326Z,2.00
2023-03-06T03:06:03.541Z,2.00
2023-03-06T03:07:10.770Z,2.00
2023-03-06T03:08:14.325Z,2.00
2023-03-06T03:09:16.594Z,2.00
2023-03-06T03:10:19.613Z,2.00
2023-03-06T03:11:23.037Z,2.00
2023-03-06T03:12:25.528Z,2.10
2023-03-06T03:13:28.512Z,2.10
2023-03-06T03:14:30.507Z,2.10
2023-03-06T03:15:32.982Z,2.10
2023-03-06T03:16:34.776Z,2.20
2023-03-06T03:17:40.404Z,2.20
2023-03-06T03:18:44.599Z,2.20
2023-03-06T03:19:46.997Z,2.30
2023-03-06T03:20:49.433Z,2.30
2023-03-06T03:21:51.260Z,2.30
2023-03-06T03:22:56.584Z,2.30
2023-03-06T03:23:58.489Z,2.30
2023-03-06T03:25:04.154Z,2.30
2023-03-06T03:26:21.228Z,2.30
2023-03-06T03:27:40.625Z,2.20
2023-03-06T03:28:44.137Z,2.20
2023-03-06T03:29:47.535Z,2.30
2023-03-06T03:30:50.063Z,2.30
2023-03-06T03:31:51.978Z,2.30
2023-03-06T03:32:54.014Z,2.30
2023-03-06T03:33:55.948Z,2.30
2023-03-06T03:34:58.077Z,2.30
2023-03-06T03:36:03.547Z,2.30
2023-03-06T03:37:05.712Z,2.40
2023-03-06T03:38:07.554Z,2.40
2023-03-06T03:39:10.758Z,2.50
2023-03-06T03:40:14.399Z,2.50
2023-03-06T03:41:16.338Z,2.50
2023-03-06T03:42:18.212Z,2.50
2023-03-06T03:43:20.262Z,2.50
2023-03-06T03:44:22.116Z,2.50
2023-03-06T03:45:24.234Z,2.60
2023-03-06T03:46:26.796Z,2.60
2023-03-06T03:47:30.692Z,2.60
2023-03-06T03:48:32.581Z,2.60
2023-03-06T03:49:34.983Z,2.70
2023-03-06T03:50:36.942Z,2.70
2023-03-06T03:51:40.063Z,2.70
2023-03-06T03:52:42.216Z,2.70
2023-03-06T03:53:46.529Z,2.70
2023-03-06T03:54:52.536Z,2.70
2023-03-06T03:55:54.364Z,2.80
2023-03-06T03:56:56.705Z,2.80
2023-03-06T03:58:03.283Z,2.80
2023-03-06T03:59:05.215Z,2.80
2023-03-06T04:00:17.005Z,2.80
2023-03-06T04:01:34.222Z,2.90
2023-03-06T04:02:36.060Z,2.90
2023-03-06T04:03:46.116Z,2.80
2023-03-06T04:04:49.910Z,2.90
2023-03-06T04:05:54.068Z,2.90
2023-03-06T04:06:55.986Z,2.90
2023-03-06T04:07:59.691Z,2.90
2023-03-06T04:09:01.532Z,2.90
2023-03-06T04:10:04.092Z,2.90
2023-03-06T04:11:06.434Z,2.90
2023-03-06T04:12:08.418Z,2.90
2023-03-06T04:13:11.907Z,2.90
2023-03-06T04:14:17.465Z,2.90
2023-03-06T04:15:19.404Z,2.90
2023-03-06T04:16:22.887Z,2.90
2023-03-06T04:17:26.290Z,3.00
2023-03-06T04:18:29.553Z,2.90
2023-03-06T04:19:35.616Z,3.00
2023-03-06T04:20:37.383Z,3.00
2023-03-06T04:21:40.373Z,3.00
2023-03-06T04:22:43.901Z,3.00
2023-03-06T04:23:47.173Z,3.00
2023-03-06T04:24:50.103Z,3.00
2023-03-06T04:25:52.855Z,3.00
2023-03-06T04:26:54.656Z,3.00
2023-03-06T04:27:56.616Z,3.00
2023-03-06T04:28:59.074Z,3.00
2023-03-06T04:30:01.274Z,3.00
2023-03-06T04:31:03.197Z,3.00
2023-03-06T04:32:06.763Z,3.00
2023-03-06T04:33:09.001Z,3.00
2023-03-06T04:34:10.745Z,3.00
2023-03-06T04:35:12.687Z,2.90
2023-03-06T04:36:35.483Z,3.00
2023-03-06T04:37:41.952Z,2.90
2023-03-06T04:38:44.225Z,2.90
2023-03-06T04:39:46.729Z,2.90
2023-03-06T04:40:49.906Z,2.90
2023-03-06T04:41:52.253Z,2.90
2023-03-06T04:42:55.341Z,2.90
2023-03-06T04:43:57.710Z,2.90
2023-03-06T04:44:59.937Z,2.90
2023-03-06T04:46:02.085Z,2.90
2023-03-06T04:47:05.137Z,2.90
2023-03-06T04:48:07.363Z,2.90
2023-03-06T04:49:09.222Z,3.00
2023-03-06T04:50:12.028Z,3.00
2023-03-06T04:51:14.524Z,3.00
2023-03-06T04:52:16.306Z,3.00
2023-03-06T04:53:19.631Z,3.00
2023-03-06T04:54:21.606Z,3.00
2023-03-06T04:55:23.371Z,3.00
2023-03-06T04:56:25.325Z,3.10
2023-03-06T04:57:27.220Z,3.10
2023-03-06T04:58:28.947Z,3.00
2023-03-06T04:59:30.786Z,3.00
2023-03-06T05:00:32.638Z,3.00
2023-03-06T05:01:35.656Z,3.00
2023-03-06T05:02:37.553Z,3.00
2023-03-06T05:03:39.485Z,2.90
2023-03-06T05:04:41.281Z,3.00
2023-03-06T05:05:43.481Z,2.90
2023-03-06T05:06:45.280Z,2.90
2023-03-06T05:07:47.174Z,3.00
2023-03-06T05:08:48.907Z,3.00
2023-03-06T05:09:50.640Z,3.00
2023-03-06T05:11:00.588Z,3.00
2023-03-06T05:12:03.389Z,3.00
2023-03-06T05:13:06.222Z,3.00
2023-03-06T05:14:09.820Z,3.00
2023-03-06T05:15:12.880Z,3.10
2023-03-06T05:16:14.735Z,3.10
2023-03-06T05:17:16.524Z,3.10
2023-03-06T05:18:19.279Z,3.10
2023-03-06T05:19:21.436Z,3.10
2023-03-06T05:20:23.392Z,3.20
2023-03-06T05:21:25.150Z,3.20
2023-03-06T05:22:26.970Z,3.20
2023-03-06T05:23:30.311Z,3.20
2023-03-06T05:24:32.174Z,3.20
2023-03-06T05:25:33.957Z,3.20
2023-03-06T05:26:35.780Z,3.20
2023-03-06T05:27:38.017Z,3.20
2023-03-06T05:28:40.678Z,3.20
2023-03-06T05:29:42.632Z,3.20
2023-03-06T05:30:44.866Z,3.20
2023-03-06T05:31:46.830Z,3.20
2023-03-06T05:32:49.071Z,3.20
2023-03-06T05:33:50.852Z,3.20
2023-03-06T05:34:52.623Z,3.20
2023-03-06T05:35:54.601Z,3.10
2023-03-06T05:36:56.640Z,3.20
2023-03-06T05:37:58.546Z,3.10
2023-03-06T05:39:00.300Z,3.20
2023-03-06T05:40:05.172Z,3.10
2023-03-06T05:41:06.950Z,3.20
2023-03-06T05:42:08.779Z,3.20
2023-03-06T05:43:11.933Z,3.20
2023-03-06T05:44:13.829Z,3.20
2023-03-06T05:45:15.673Z,3.20
2023-03-06T05:46:17.579Z,3.20
2023-03-06T05:47:19.496Z,3.20
2023-03-06T05:48:21.287Z,3.30
2023-03-06T05:49:23.077Z,3.30
2023-03-06T05:50:25.158Z,3.30
2023-03-06T05:51:26.991Z,3.30
2023-03-06T05:52:28.922Z,3.30
2023-03-06T05:53:33.774Z,3.30
2023-03-06T05:54:36.860Z,3.20
2023-03-06T05:55:39.341Z,3.30
2023-03-06T05:56:42.838Z,3.30
2023-03-06T05:57:45.255Z,3.30
2023-03-06T05:58:47.531Z,3.30
2023-03-06T05:59:50.201Z,3.30
2023-03-06T06:00:52.401Z,3.30
2023-03-06T06:01:55.779Z,3.30
2023-03-06T06:03:01.062Z,3.30
2023-03-06T06:04:02.813Z,3.30
2023-03-06T06:05:05.361Z,3.30
2023-03-06T06:06:08.777Z,3.30
2023-03-06T06:07:16.138Z,3.30
2023-03-06T06:08:18.225Z,3.30
2023-03-06T06:09:20.433Z,3.30
2023-03-06T06:10:22.195Z,3.30
2023-03-06T06:11:23.957Z,3.30
2023-03-06T06:12:26.779Z,3.30
2023-03-06T06:13:28.551Z,3.30
2023-03-06T06:14:33.348Z,3.30
2023-03-06T06:15:35.228Z,3.30
2023-03-06T06:16:37.080Z,3.30
2023-03-06T06:17:38.914Z,3.30
2023-03-06T06:18:41.521Z,3.30
2023-03-06T06:19:43.557Z,3.30
2023-03-06T06:20:45.582Z,3.30
2023-03-06T06:21:54.183Z,3.30
2023-03-06T06:22:56.321Z,3.30
2023-03-06T06:23:58.464Z,3.30
2023-03-06T06:25:00.174Z,3.30
2023-03-06T06:26:04.210Z,3.30
2023-03-06T06:27:06.602Z,3.30
2023-03-06T06:28:08.440Z,3.20
2023-03-06T06:29:11.147Z,3.20
2023-03-06T06:30:13.456Z,3.30
2023-03-06T06:31:15.359Z,3.30
2023-03-06T06:32:17.257Z,3.30
2023-03-06T06:33:19.097Z,3.30
2023-03-06T06:34:22.289Z,3.30
2023-03-06T06:35:26.015Z,3.30
2023-03-06T06:36:31.001Z,3.30
2023-03-06T06:37:33.980Z,3.30
2023-03-06T06:38:35.907Z,3.30
2023-03-06T06:39:37.904Z,3.30
2023-03-06T06:40:39.687Z,3.40
2023-03-06T06:41:59.320Z,3.40
2023-03-06T06:43:03.626Z,3.40
2023-03-06T06:44:08.518Z,3.40
2023-03-06T06:45:11.840Z,3.40
2023-03-06T06:46:47.137Z,3.40
2023-03-06T06:47:38.374Z,3.40
2023-03-06T06:48:40.374Z,3.40
2023-03-06T06:49:42.115Z,3.40
2023-03-06T06:50:43.949Z,3.50
2023-03-06T06:51:46.365Z,3.50
2023-03-06T06:52:48.162Z,3.50
2023-03-06T06:53:53.415Z,3.50
2023-03-06T06:54:55.291Z,3.50
2023-03-06T06:55:58.645Z,3.50
2023-03-06T06:57:00.627Z,3.60
2023-03-06T06:58:02.559Z,3.60
2023-03-06T06:59:16.109Z,3.60
2023-03-06T07:00:19.826Z,3.60
2023-03-06T07:01:22.449Z,3.70
2023-03-06T07:02:24.380Z,3.70
2023-03-06T07:03:26.243Z,3.70
2023-03-06T07:04:28.101Z,3.70
2023-03-06T07:05:29.899Z,3.70
2023-03-06T07:06:31.926Z,3.70
2023-03-06T07:07:36.267Z,3.80
2023-03-06T07:08:38.108Z,3.80
2023-03-06T07:09:40.199Z,3.80
2023-03-06T07:10:42.045Z,3.80
2023-03-06T07:11:43.872Z,3.80
2023-03-06T07:12:45.616Z,3.80
2023-03-06T07:13:48.441Z,3.80
2023-03-06T07:14:50.301Z,3.80
2023-03-06T07:15:52.264Z,3.80
2023-03-06T07:16:54.101Z,3.90
2023-03-06T07:17:56.009Z,3.90
2023-03-06T07:18:57.929Z,3.90
2023-03-06T07:20:00.585Z,3.90
2023-03-06T07:21:02.407Z,3.90
2023-03-06T07:22:04.729Z,4.00
2023-03-06T07:23:11.547Z,4.00
2023-03-06T07:24:13.306Z,4.00
2023-03-06T07:25:15.144Z,4.00
2023-03-06T07:26:16.930Z,4.00
2023-03-06T07:27:18.643Z,4.00
2023-03-06T07:28:21.358Z,4.00
2023-03-06T07:29:23.170Z,4.10
2023-03-06T07:30:25.386Z,4.10
2023-03-06T07:31:27.745Z,4.10
2023-03-06T07:32:30.004Z,4.10
2023-03-06T07:33:32.038Z,4.10
2023-03-06T07:34:33.887Z,4.10
2023-03-06T07:35:36.018Z,4.20
2023-03-06T07:36:40.416Z,4.20
2023-03-06T07:37:43.928Z,4.20
2023-03-06T07:38:46.947Z,4.20
2023-03-06T07:39:49.192Z,4.20
2023-03-06T07:40:52.777Z,4.20
2023-03-06T07:41:58.683Z,4.20
2023-03-06T07:43:16.892Z,4.20
2023-03-06T07:44:24.294Z,4.20
2023-03-06T07:45:26.718Z,4.20
2023-03-06T07:46:28.870Z,4.20
2023-03-06T07:47:31.096Z,4.30
2023-03-06T07:48:33.409Z,4.30
2023-03-06T07:49:35.267Z,4.30
2023-03-06T07:50:39.011Z,4.30
2023-03-06T07:51:40.836Z,4.30
2023-03-06T07:52:42.701Z,4.40
2023-03-06T07:53:45.555Z,4.40
2023-03-06T07:54:48.179Z,4.40
2023-03-06T07:55:50.181Z,4.40
2023-03-06T07:56:52.683Z,4.40
2023-03-06T07:57:54.577Z,4.40
2023-03-06T07:58:57.155Z,4.40
2023-03-06T07:59:59.080Z,4.50
2023-03-06T08:01:08.569Z,4.50
2023-03-06T08:02:12.173Z,4.50
2023-03-06T08:03:14.373Z,4.60
2023-03-06T08:04:16.408Z,4.60
2023-03-06T08:05:18.396Z,4.70
2023-03-06T08:06:26.212Z,4.70
2023-03-06T08:07:29.792Z,4.70
2023-03-06T08:08:34.348Z,4.80
2023-03-06T08:09:37.144Z,4.80
2023-03-06T08:10:38.912Z,4.80
2023-03-06T08:11:40.753Z,4.90
2023-03-06T08:12:42.709Z,4.90
2023-03-06T08:13:45.442Z,4.90
2023-03-06T08:14:47.238Z,4.90
2023-03-06T08:15:49.590Z,5.00
2023-03-06T08:16:51.939Z,5.00
2023-03-06T08:17:54.118Z,5.00
2023-03-06T08:18:57.497Z,5.00
2023-03-06T08:19:59.502Z,5.00
2023-03-06T08:21:02.922Z,5.00
2023-03-06T08:22:06.013Z,5.10
2023-03-06T08:23:07.825Z,5.10
2023-03-06T08:24:09.733Z,5.10
2023-03-06T08:25:13.458Z,5.10
2023-03-06T08:26:18.290Z,5.10
2023-03-06T08:27:20.052Z,5.20
2023-03-06T08:28:21.851Z,5.20
2023-03-06T08:29:23.821Z,5.20
2023-03-06T08:30:25.644Z,5.20
2023-03-06T08:31:29.642Z,5.20
2023-03-06T08:32:31.465Z,5.20
2023-03-06T08:33:33.204Z,5.20
2023-03-06T08:34:35.008Z,5.20
2023-03-06T08:35:36.965Z,5.20
2023-03-06T08:36:38.795Z,5.20
2023-03-06T08:37:40.843Z,5.20
2023-03-06T08:38:43.039Z,5.20
2023-03-06T08:39:44.877Z,5.20
2023-03-06T08:40:46.641Z,5.30
2023-03-06T08:41:48.504Z,5.30
2023-03-06T08:42:50.252Z,5.30
2023-03-06T08:43:52.711Z,5.30
2023-03-06T08:44:54.638Z,5.40
2023-03-06T08:45:58.309Z,5.40
2023-03-06T08:47:00.447Z,5.50
2023-03-06T08:48:02.323Z,5.40
2023-03-06T08:49:04.891Z,5.50
2023-03-06T08:50:07.448Z,5.50
2023-03-06T08:51:10.049Z,5.50
2023-03-06T08:52:12.056Z,5.50
2023-03-06T08:53:14.116Z,5.60
2023-03-06T08:54:15.995Z,5.60
2023-03-06T08:55:17.880Z,5.70
2023-03-06T08:56:22.863Z,5.70
2023-03-06T08:57:24.657Z,5.80
2023-03-06T08:58:26.518Z,5.90
2023-03-06T08:59:29.587Z,5.90
2023-03-06T09:00:33.876Z,5.90
2023-03-06T09:01:38.086Z,5.90
2023-03-06T09:02:42.140Z,5.90
2023-03-06T09:03:46.096Z,5.90
2023-03-06T09:04:47.964Z,6.00
2023-03-06T09:05:51.148Z,6.00
2023-03-06T09:06:55.207Z,6.00
2023-03-06T09:07:57.281Z,6.10
2023-03-06T09:09:02.577Z,6.20
2023-03-06T09:10:04.733Z,6.30
2023-03-06T09:11:08.032Z,6.30
2023-03-06T09:12:10.032Z,6.50
2023-03-06T09:13:12.283Z,6.60
2023-03-06T09:14:16.138Z,6.70
2023-03-06T09:15:19.322Z,6.80
2023-03-06T09:16:22.545Z,6.80
2023-03-06T09:17:24.741Z,6.90
2023-03-06T09:18:26.674Z,6.90
2023-03-06T09:19:28.549Z,7.00
2023-03-06T09:20:30.307Z,7.10
2023-03-06T09:21:32.421Z,7.20
2023-03-06T09:22:39.172Z,7.20
2023-03-06T09:23:41.263Z,7.20
2023-03-06T09:24:43.020Z,7.10
2023-03-06T09:25:46.452Z,7.10
2023-03-06T09:26:50.517Z,7.00
2023-03-06T09:28:08.732Z,7.00
2023-03-06T09:29:12.789Z,6.80
2023-03-06T09:30:15.387Z,6.70
2023-03-06T09:31:20.783Z,6.60
2023-03-06T09:32:24.511Z,6.60
2023-03-06T09:33:29.037Z,6.50
2023-03-06T09:34:30.909Z,6.50
2023-03-06T09:35:32.727Z,6.50
2023-03-06T09:36:49.262Z,6.50
2023-03-06T09:37:55.459Z,6.60
2023-03-06T09:38:57.387Z,6.70
2023-03-06T09:39:59.439Z,6.90
2023-03-06T09:41:18.914Z,7.20
2023-03-06T09:42:23.815Z,7.40
2023-03-06T09:43:38.401Z,7.70
2023-03-06T09:44:41.338Z,7.90
2023-03-06T09:45:43.131Z,8.00
2023-03-06T09:47:22.033Z,8.00
2023-03-06T09:48:40.878Z,7.90
2023-03-06T09:50:08.714Z,7.90
2023-03-06T09:51:16.359Z,7.80
2023-03-06T09:52:44.228Z,7.80
2023-03-06T09:53:46.622Z,7.80
2023-03-06T09:55:17.843Z,7.70
2023-03-06T09:56:23.635Z,7.70
2023-03-06T09:57:36.081Z,7.70
2023-03-06T09:59:05.731Z,7.70
2023-03-06T10:00:15.172Z,7.70
2023-03-06T10:01:30.263Z,7.70
2023-03-06T10:02:44.830Z,7.70
2023-03-06T10:04:24.476Z,7.70
2023-03-06T10:05:34.869Z,7.70
2023-03-06T10:06:36.645Z,7.80
2023-03-06T10:08:20.246Z,7.80
2023-03-06T10:09:46.304Z,7.90
2023-03-06T10:11:03.694Z,8.10
2023-03-06T10:12:24.777Z,8.20
2023-03-06T10:13:34.172Z,8.20
2023-03-06T10:14:49.453Z,8.30
2023-03-06T10:15:54.847Z,8.40
2023-03-06T10:16:58.837Z,8.60
2023-03-06T10:18:03.259Z,8.80
2023-03-06T10:19:14.151Z,9.00
2023-03-06T10:20:27.332Z,9.20
2023-03-06T10:21:58.302Z,9.40
2023-03-06T10:23:25.473Z,9.50
2023-03-06T10:24:48.637Z,9.60
2023-03-06T10:26:08.660Z,9.60
2023-03-06T10:27:28.630Z,9.80
2023-03-06T10:28:52.762Z,9.90
2023-03-06T10:30:18.543Z,10.10
2023-03-06T10:31:26.034Z,10.40
2023-03-06T10:32:49.195Z,10.60
2023-03-06T10:34:05.221Z,10.70
2023-03-06T10:35:18.580Z,10.80
2023-03-06T10:36:22.994Z,10.90
2023-03-06T10:37:25.359Z,11.00
2023-03-06T10:38:31.291Z,11.10
2023-03-06T10:39:33.181Z,11.20
2023-03-06T10:40:49.072Z,11.30
2023-03-06T10:41:51.010Z,11.30
2023-03-06T10:43:09.382Z,11.20
2023-03-06T10:44:12.734Z,11.10
2023-03-06T10:45:16.658Z,10.90
2023-03-06T10:46:31.686Z,10.90
2023-03-06T10:47:37.688Z,10.80
2023-03-06T10:48:42.444Z,10.80
2023-03-06T10:49:58.245Z,10.90
2023-03-06T10:51:24.221Z,10.90
2023-03-06T10:52:29.912Z,10.90
2023-03-06T10:53:32.901Z,11.00
2023-03-06T10:54:37.815Z,10.90
2023-03-06T10:55:39.896Z,10.90
2023-03-06T10:56:51.298Z,10.80
2023-03-06T10:58:19.428Z,10.80
2023-03-06T10:59:25.497Z,10.70
2023-03-06T11:00:33.274Z,10.60
2023-03-06T11:01:36.151Z,10.60
2023-03-06T11:02:41.326Z,10.60
2023-03-06T11:03:43.463Z,10.60
2023-03-06T11:04:47.287Z,10.50
2023-03-06T11:06:02.619Z,10.50
2023-03-06T11:07:20.417Z,10.50
2023-03-06T11:08:23.440Z,10.60
2023-03-06T11:09:26.556Z,10.50
2023-03-06T11:10:30.318Z,10.40
2023-03-06T11:11:37.740Z,10.30
2023-03-06T11:12:42.559Z,10.20
2023-03-06T11:13:44.938Z,10.20
2023-03-06T11:14:46.973Z,10.10
2023-03-06T11:16:25.849Z,10.10
2023-03-06T11:17:29.819Z,10.00
2023-03-06T11:18:36.504Z,10.00
2023-03-06T11:19:38.337Z,10.20
2023-03-06T11:20:51.968Z,10.50
2023-03-06T11:22:15.097Z,10.70
2023-03-06T11:23:39.234Z,10.90
2023-03-06T11:24:44.683Z,11.00
2023-03-06T11:25:59.666Z,11.10
2023-03-06T11:27:14.025Z,11.00
2023-03-06T11:28:29.349Z,10.80
2023-03-06T11:29:47.949Z,10.50
2023-03-06T11:30:56.064Z,10.30
2023-03-06T11:32:02.620Z,10.00
2023-03-06T11:33:17.644Z,9.80
2023-03-06T11:34:23.884Z,9.60
2023-03-06T11:35:35.166Z,9.40
2023-03-06T11:37:01.292Z,9.30
2023-03-06T11:38:14.580Z,9.10
2023-03-06T11:39:36.922Z,9.00
2023-03-06T11:40:58.004Z,9.00
2023-03-06T11:42:17.390Z,8.90
2023-03-06T11:43:55.972Z,8.90
2023-03-06T11:45:16.211Z,8.80
2023-03-06T11:46:29.614Z,8.70
2023-03-06T11:47:46.281Z,8.60
2023-03-06T11:49:23.514Z,8.60
2023-03-06T11:50:40.517Z,8.50
2023-03-06T11:51:49.935Z,8.60
2023-03-06T11:52:57.172Z,8.60
2023-03-06T11:54:00.734Z,8.70
2023-03-06T11:55:02.729Z,8.70
2023-03-06T11:56:19.029Z,8.80
2023-03-06T11:57:30.128Z,8.80
2023-03-06T11:58:50.502Z,8.80
2023-03-06T12:00:21.640Z,8.80
2023-03-06T12:01:50.740Z,8.90
2023-03-06T12:03:26.121Z,8.90
2023-03-06T12:04:36.535Z,8.80
2023-03-06T12:06:11.108Z,8.80
2023-03-06T12:07:36.033Z,8.70
2023-03-06T12:09:17.861Z,8.60
2023-03-06T12:10:27.807Z,8.40
2023-03-06T12:11:51.169Z,8.30
2023-03-06T12:13:07.985Z,8.30
2023-03-06T12:14:43.239Z,8.30
2023-03-06T12:16:07.534Z,8.30
2023-03-06T12:17:17.957Z,8.40
2023-03-06T12:18:43.062Z,8.40
2023-03-06T12:20:19.504Z,8.50
2023-03-06T12:21:36.101Z,8.50
2023-03-06T12:22:57.998Z,8.50
2023-03-06T12:24:28.863Z,8.50
2023-03-06T12:25:40.727Z,8.50
2023-03-06T12:26:45.408Z,8.50
2023-03-06T12:28:08.355Z,8.40
2023-03-06T12:29:44.882Z,8.40
2023-03-06T12:31:24.962Z,8.30
2023-03-06T12:32:53.140Z,8.30
2023-03-06T12:34:17.160Z,8.20
2023-03-06T12:35:31.033Z,8.20
2023-03-06T12:37:00.666Z,8.20
2023-03-06T12:38:38.784Z,8.20
2023-03-06T12:39:52.672Z,8.30
2023-03-06T12:41:35.147Z,8.30
2023-03-06T12:42:56.903Z,8.40
2023-03-06T12:44:10.300Z,8.40
2023-03-06T12:45:12.109Z,8.40
2023-03-06T12:46:20.340Z,8.40
2023-03-06T12:47:25.272Z,8.40
2023-03-06T12:48:32.645Z,8.40
2023-03-06T12:49:39.246Z,8.40
2023-03-06T12:50:44.426Z,8.40
2023-03-06T12:51:46.690Z,8.40
2023-03-06T12:52:49.400Z,8.40
2023-03-06T12:53:51.658Z,8.50
2023-03-06T12:54:54.630Z,8.50
2023-03-06T12:55:58.297Z,8.50
2023-03-06T12:57:01.494Z,8.60
2023-03-06T12:58:28.332Z,8.60
2023-03-06T12:59:50.023Z,8.70
2023-03-06T13:01:09.742Z,8.70
2023-03-06T13:02:32.817Z,8.70
2023-03-06T13:03:59.228Z,8.70
2023-03-06T13:05:05.330Z,8.60
2023-03-06T13:06:50.884Z,8.60
2023-03-06T13:07:56.157Z,8.60
2023-03-06T13:09:03.485Z,8.70
2023-03-06T13:10:31.073Z,8.70
2023-03-06T13:12:10.140Z,8.80
2023-03-06T13:13:32.190Z,8.80
2023-03-06T13:14:35.724Z,8.80
2023-03-06T13:15:39.052Z,8.80
2023-03-06T13:16:40.918Z,8.80
2023-03-06T13:17:42.803Z,8.80
2023-03-06T13:18:44.528Z,8.70
2023-03-06T13:19:47.356Z,8.70
2023-03-06T13:20:56.718Z,8.60
2023-03-06T13:21:58.521Z,8.60
2023-03-06T13:23:29.833Z,8.50
2023-03-06T13:24:37.327Z,8.50
2023-03-06T13:25:50.865Z,8.40
2023-03-06T13:27:03.049Z,8.30
2023-03-06T13:28:05.080Z,8.30
2023-03-06T13:29:35.722Z,8.30
2023-03-06T13:30:44.752Z,8.30
2023-03-06T13:31:46.591Z,8.30
2023-03-06T13:32:49.925Z,8.20
2023-03-06T13:33:54.195Z,8.30
2023-03-06T13:34:56.069Z,8.20
2023-03-06T13:35:59.005Z,8.20
2023-03-06T13:37:25.053Z,8.20
2023-03-06T13:38:31.269Z,8.30
2023-03-06T13:39:55.931Z,8.20
2023-03-06T13:41:22.571Z,8.20
2023-03-06T13:42:57.391Z,8.30
2023-03-06T13:44:01.770Z,8.30
2023-03-06T13:45:09.038Z,8.30
2023-03-06T13:46:28.177Z,8.30
2023-03-06T13:47:32.302Z,8.30
2023-03-06T13:48:45.116Z,8.30
2023-03-06T13:49:49.259Z,8.20
2023-03-06T13:50:52.101Z,8.20
2023-03-06T13:52:02.989Z,8.10
2023-03-06T13:53:30.307Z,8.10
2023-03-06T13:54:48.003Z,8.10
2023-03-06T13:56:01.779Z,8.00
2023-03-06T13:57:06.311Z,8.00
2023-03-06T13:58:22.750Z,8.00
2023-03-06T13:59:43.173Z,8.00
2023-03-06T14:01:09.470Z,8.00
2023-03-06T14:02:37.397Z,8.10
2023-03-06T14:04:06.730Z,8.10
2023-03-06T14:05:13.684Z,8.10
2023-03-06T14:06:34.161Z,8.10
2023-03-06T14:07:42.556Z,8.10
2023-03-06T14:08:46.361Z,8.10
2023-03-06T14:10:00.687Z,8.20
2023-03-06T14:11:17.455Z,8.10
2023-03-06T14:12:26.797Z,8.20
2023-03-06T14:13:50.680Z,8.20
2023-03-06T14:15:19.049Z,8.20
2023-03-06T14:16:25.239Z,8.20
2023-03-06T14:17:37.919Z,8.30
2023-03-06T14:18:49.501Z,8.20
2023-03-06T14:19:51.711Z,8.30
2023-03-06T14:21:01.833Z,8.20
2023-03-06T14:22:12.418Z,8.20
2023-03-06T14:23:27.948Z,8.20
2023-03-06T14:24:41.279Z,8.20
2023-03-06T14:25:46.001Z,8.20
2023-03-06T14:26:51.234Z,8.30
2023-03-06T14:27:58.178Z,8.20
2023-03-06T14:29:03.117Z,8.20
2023-03-06T14:30:11.826Z,8.20
2023-03-06T14:31:26.049Z,8.20
2023-03-06T14:32:27.882Z,8.20
2023-03-06T14:33:34.813Z,8.20
2023-03-06T14:34:45.872Z,8.30
2023-03-06T14:35:52.244Z,8.30
2023-03-06T14:36:58.287Z,8.30
2023-03-06T14:38:04.221Z,8.30
2023-03-06T14:39:34.308Z,8.40
2023-03-06T14:40:44.868Z,8.40
2023-03-06T14:41:46.799Z,8.40
2023-03-06T14:42:48.562Z,8.40
2023-03-06T14:43:51.029Z,8.40
2023-03-06T14:45:03.350Z,8.40
2023-03-06T14:46:06.958Z,8.40
2023-03-06T14:47:28.693Z,8.40